sensor_id;sensor_type;location;lat;lon;timestamp;pressure;altitude;pressure_sealevel;temperature;humidity
57644;BME280;43474;46.510;6.686;2023-01-27T00:00:06;96375.16;;;-1.07;100.00
57644;BME280;43474;46.510;6.686;2023-01-27T00:02:52;96378.72;;;-1.08;100.00
57644;BME280;43474;46.510;6.686;2023-01-27T00:05:18;96375.31;;;-1.17;100.00
57644;BME280;43474;46.510;6.686;2023-01-27T00:07:43;96369.81;;;-1.22;100.00
57644;BME280;43474;46.510;6.686;2023-01-27T00:10:19;96361.50;;;-1.17;100.00
57644;BME280;43474;46.510;6.686;2023-01-27T00:12:46;96363.63;;;-1.21;100.00
57644;BME280;43474;46.510;6.686;2023-01-27T00:15:31;96366.41;;;-1.14;100.00
57644;BME280;43474;46.510;6.686;2023-01-27T00:17:58;96373.66;;;-1.10;100.00
57644;BME280;43474;46.510;6.686;2023-01-27T00:20:24;96363.63;;;-1.13;100.00
57644;BME280;43474;46.510;6.686;2023-01-27T00:23:16;96352.88;;;-1.10;100.00
57644;BME280;43474;46.510;6.686;2023-01-27T00:26:03;96355.66;;;-1.11;100.00
57644;BME280;43474;46.510;6.686;2023-01-27T00:28:35;96349.16;;;-1.15;100.00
57644;BME280;43474;46.510;6.686;2023-01-27T00:31:00;96342.00;;;-1.13;100.00
57644;BME280;43474;46.510;6.686;2023-01-27T00:33:26;96360.66;;;-1.10;100.00
57644;BME280;43474;46.510;6.686;2023-01-27T00:36:04;96349.78;;;-1.05;100.00
57644;BME280;43474;46.510;6.686;2023-01-27T00:38:32;96350.44;;;-1.11;100.00
57644;BME280;43474;46.510;6.686;2023-01-27T00:40:58;96349.50;;;-1.18;100.00
57644;BME280;43474;46.510;6.686;2023-01-27T00:43:40;96340.53;;;-1.16;100.00
57644;BME280;43474;46.510;6.686;2023-01-27T00:46:06;96356.13;;;-1.16;100.00
57644;BME280;43474;46.510;6.686;2023-01-27T00:48:32;96341.03;;;-1.20;100.00
57644;BME280;43474;46.510;6.686;2023-01-27T00:50:58;96339.41;;;-1.21;100.00
57644;BME280;43474;46.510;6.686;2023-01-27T00:53:23;96345.91;;;-1.17;100.00
57644;BME280;43474;46.510;6.686;2023-01-27T00:55:49;96352.72;;;-1.16;100.00
57644;BME280;43474;46.510;6.686;2023-01-27T00:58:15;96323.66;;;-1.28;100.00
57644;BME280;43474;46.510;6.686;2023-01-27T01:00:40;96327.72;;;-1.17;100.00
57644;BME280;43474;46.510;6.686;2023-01-27T01:03:06;96336.31;;;-1.17;100.00
57644;BME280;43474;46.510;6.686;2023-01-27T01:05:32;96344.59;;;-1.13;100.00
57644;BME280;43474;46.510;6.686;2023-01-27T01:07:57;96334.88;;;-1.19;100.00
57644;BME280;43474;46.510;6.686;2023-01-27T01:10:23;96340.53;;;-1.08;100.00
57644;BME280;43474;46.510;6.686;2023-01-27T01:12:48;96318.47;;;-1.28;100.00
57644;BME280;43474;46.510;6.686;2023-01-27T01:15:14;96323.16;;;-1.15;100.00
57644;BME280;43474;46.510;6.686;2023-01-27T01:17:40;96321.22;;;-1.13;100.00
57644;BME280;43474;46.510;6.686;2023-01-27T01:20:05;96321.66;;;-1.10;100.00
57644;BME280;43474;46.510;6.686;2023-01-27T01:22:32;96322.19;;;-1.14;100.00
57644;BME280;43474;46.510;6.686;2023-01-27T01:24:57;96292.16;;;-1.33;100.00
57644;BME280;43474;46.510;6.686;2023-01-27T01:27:23;96305.94;;;-1.16;100.00
57644;BME280;43474;46.510;6.686;2023-01-27T01:29:48;96327.22;;;-1.13;100.00
57644;BME280;43474;46.510;6.686;2023-01-27T01:32:14;96324.13;;;-1.16;100.00
57644;BME280;43474;46.510;6.686;2023-01-27T01:34:39;96319.09;;;-1.18;100.00
57644;BME280;43474;46.510;6.686;2023-01-27T01:37:05;96311.31;;;-1.18;100.00
57644;BME280;43474;46.510;6.686;2023-01-27T01:39:31;96333.53;;;-1.07;100.00
57644;BME280;43474;46.510;6.686;2023-01-27T01:41:57;96316.31;;;-1.16;100.00
57644;BME280;43474;46.510;6.686;2023-01-27T01:44:28;96314.72;;;-1.17;100.00
57644;BME280;43474;46.510;6.686;2023-01-27T01:46:54;96311.78;;;-1.22;100.00
57644;BME280;43474;46.510;6.686;2023-01-27T01:49:30;96310.63;;;-1.12;100.00
57644;BME280;43474;46.510;6.686;2023-01-27T01:52:02;96306.09;;;-1.18;100.00
57644;BME280;43474;46.510;6.686;2023-01-27T01:54:33;96304.31;;;-1.17;100.00
57644;BME280;43474;46.510;6.686;2023-01-27T01:57:04;96314.19;;;-1.05;100.00
57644;BME280;43474;46.510;6.686;2023-01-27T01:59:39;96311.44;;;-1.03;100.00
57644;BME280;43474;46.510;6.686;2023-01-27T02:02:10;96306.41;;;-1.13;100.00
57644;BME280;43474;46.510;6.686;2023-01-27T02:04:46;96301.53;;;-1.16;100.00
57644;BME280;43474;46.510;6.686;2023-01-27T02:07:19;96306.91;;;-1.17;100.00
57644;BME280;43474;46.510;6.686;2023-01-27T02:09:46;96297.81;;;-1.21;100.00
57644;BME280;43474;46.510;6.686;2023-01-27T02:12:12;96280.97;;;-1.34;100.00
57644;BME280;43474;46.510;6.686;2023-01-27T02:14:38;96290.81;;;-1.21;100.00
57644;BME280;43474;46.510;6.686;2023-01-27T02:17:06;96306.41;;;-1.13;100.00
57644;BME280;43474;46.510;6.686;2023-01-27T02:19:40;96293.59;;;-1.14;100.00
57644;BME280;43474;46.510;6.686;2023-01-27T02:22:19;96294.03;;;-1.11;100.00
57644;BME280;43474;46.510;6.686;2023-01-27T02:24:52;96291.00;;;-1.14;100.00
57644;BME280;43474;46.510;6.686;2023-01-27T02:27:20;96286.91;;;-1.17;100.00
57644;BME280;43474;46.510;6.686;2023-01-27T02:29:45;96293.59;;;-1.14;100.00
57644;BME280;43474;46.510;6.686;2023-01-27T02:32:24;96284.81;;;-1.13;100.00
57644;BME280;43474;46.510;6.686;2023-01-27T02:34:51;96293.91;;;-1.17;100.00
57644;BME280;43474;46.510;6.686;2023-01-27T02:37:19;96280.59;;;-1.22;100.00
57644;BME280;43474;46.510;6.686;2023-01-27T02:39:45;96282.69;;;-1.18;100.00
57644;BME280;43474;46.510;6.686;2023-01-27T02:42:13;96301.72;;;-1.17;100.00
57644;BME280;43474;46.510;6.686;2023-01-27T02:44:40;96297.81;;;-1.21;100.00
57644;BME280;43474;46.510;6.686;2023-01-27T02:47:05;96287.91;;;-1.26;100.00
57644;BME280;43474;46.510;6.686;2023-01-27T02:49:31;96286.28;;;-1.27;100.00
57644;BME280;43474;46.510;6.686;2023-01-27T02:51:56;96290.50;;;-1.26;100.00
57644;BME280;43474;46.510;6.686;2023-01-27T02:54:26;96290.34;;;-1.24;100.00
57644;BME280;43474;46.510;6.686;2023-01-27T02:56:52;96273.47;;;-1.37;100.00
57644;BME280;43474;46.510;6.686;2023-01-27T02:59:18;96265.84;;;-1.46;100.00
57644;BME280;43474;46.510;6.686;2023-01-27T03:01:43;96283.69;;;-1.27;100.00
57644;BME280;43474;46.510;6.686;2023-01-27T03:04:09;96291.13;;;-1.16;100.00
57644;BME280;43474;46.510;6.686;2023-01-27T03:06:37;96261.59;;;-1.31;100.00
57644;BME280;43474;46.510;6.686;2023-01-27T03:09:04;96285.13;;;-1.16;100.00
57644;BME280;43474;46.510;6.686;2023-01-27T03:11:30;96264.50;;;-1.26;100.00
57644;BME280;43474;46.510;6.686;2023-01-27T03:14:13;96282.53;;;-1.24;100.00
57644;BME280;43474;46.510;6.686;2023-01-27T03:16:39;96284.63;;;-1.20;100.00
57644;BME280;43474;46.510;6.686;2023-01-27T03:19:23;96261.44;;;-1.30;100.00
57644;BME280;43474;46.510;6.686;2023-01-27T03:21:54;96273.47;;;-1.28;100.00
57644;BME280;43474;46.510;6.686;2023-01-27T03:24:21;96283.69;;;-1.27;100.00
57644;BME280;43474;46.510;6.686;2023-01-27T03:26:46;96280.91;;;-1.25;100.00
57644;BME280;43474;46.510;6.686;2023-01-27T03:29:12;96279.63;;;-1.21;100.00
57644;BME280;43474;46.510;6.686;2023-01-27T03:31:56;96263.84;;;-1.20;100.00
57644;BME280;43474;46.510;6.686;2023-01-27T03:34:22;96259.63;;;-1.21;100.00
57644;BME280;43474;46.510;6.686;2023-01-27T03:36:47;96271.34;;;-1.25;100.00
57644;BME280;43474;46.510;6.686;2023-01-27T03:39:31;96264.03;;;-1.30;100.00
57644;BME280;43474;46.510;6.686;2023-01-27T03:42:15;96271.50;;;-1.26;100.00
57644;BME280;43474;46.510;6.686;2023-01-27T03:44:59;96269.72;;;-1.26;100.00
57644;BME280;43474;46.510;6.686;2023-01-27T03:47:43;96267.59;;;-1.31;100.00
57644;BME280;43474;46.510;6.686;2023-01-27T03:50:09;96271.19;;;-1.23;100.00
57644;BME280;43474;46.510;6.686;2023-01-27T03:52:49;96268.41;;;-1.22;100.00
57644;BME280;43474;46.510;6.686;2023-01-27T03:55:31;96264.03;;;-1.30;100.00
57644;BME280;43474;46.510;6.686;2023-01-27T03:57:57;96274.59;;;-1.23;100.00
57644;BME280;43474;46.510;6.686;2023-01-27T04:00:38;96274.09;;;-1.26;100.00
57644;BME280;43474;46.510;6.686;2023-01-27T04:03:04;96266.81;;;-1.31;100.00
57644;BME280;43474;46.510;6.686;2023-01-27T04:05:48;96281.09;;;-1.19;100.00
57644;BME280;43474;46.510;6.686;2023-01-27T04:08:32;96257.38;;;-1.32;100.00
57644;BME280;43474;46.510;6.686;2023-01-27T04:11:02;96282.41;;;-1.23;100.00
57644;BME280;43474;46.510;6.686;2023-01-27T04:13:47;96272.19;;;-1.33;100.00
57644;BME280;43474;46.510;6.686;2023-01-27T04:16:12;96279.31;;;-1.35;100.00
57644;BME280;43474;46.510;6.686;2023-01-27T04:18:38;96273.47;;;-1.37;100.00
57644;BME280;43474;46.510;6.686;2023-01-27T04:21:04;96285.97;;;-1.24;100.00
57644;BME280;43474;46.510;6.686;2023-01-27T04:23:29;96286.97;;;-1.33;100.00
57644;BME280;43474;46.510;6.686;2023-01-27T04:25:55;96280.59;;;-1.31;100.00
57644;BME280;43474;46.510;6.686;2023-01-27T04:28:21;96282.22;;;-1.21;100.00
57644;BME280;43474;46.510;6.686;2023-01-27T04:30:47;96274.59;;;-1.31;100.00
57644;BME280;43474;46.510;6.686;2023-01-27T04:33:13;96252.19;;;-1.40;100.00
57644;BME280;43474;46.510;6.686;2023-01-27T04:35:43;96280.78;;;-1.32;100.00
57644;BME280;43474;46.510;6.686;2023-01-27T04:38:10;96273.78;;;-1.40;100.00
57644;BME280;43474;46.510;6.686;2023-01-27T04:40:36;96287.41;;;-1.30;100.00
57644;BME280;43474;46.510;6.686;2023-01-27T04:43:02;96269.91;;;-1.36;100.00
57644;BME280;43474;46.510;6.686;2023-01-27T04:45:27;96282.41;;;-1.31;100.00
57644;BME280;43474;46.510;6.686;2023-01-27T04:47:53;96271.00;;;-1.30;100.00
57644;BME280;43474;46.510;6.686;2023-01-27T04:50:18;96266.63;;;-1.30;100.00
57644;BME280;43474;46.510;6.686;2023-01-27T04:52:44;96262.09;;;-1.36;100.00
57644;BME280;43474;46.510;6.686;2023-01-27T04:55:10;96257.25;;;-1.39;100.00
57644;BME280;43474;46.510;6.686;2023-01-27T04:57:36;96270.56;;;-1.34;100.00
57644;BME280;43474;46.510;6.686;2023-01-27T05:00:05;96263.75;;;-1.43;100.00
57644;BME280;43474;46.510;6.686;2023-01-27T05:02:31;96250.13;;;-1.53;100.00
57644;BME280;43474;46.510;6.686;2023-01-27T05:04:57;96267.00;;;-1.49;100.00
57644;BME280;43474;46.510;6.686;2023-01-27T05:07:23;96263.41;;;-1.40;100.00
57644;BME280;43474;46.510;6.686;2023-01-27T05:09:48;96251.91;;;-1.53;100.00
57644;BME280;43474;46.510;6.686;2023-01-27T05:12:14;96257.06;;;-1.37;100.00
57644;BME280;43474;46.510;6.686;2023-01-27T05:14:40;96277.69;;;-1.27;100.00
57644;BME280;43474;46.510;6.686;2023-01-27T05:17:05;96276.88;;;-1.36;100.00
57644;BME280;43474;46.510;6.686;2023-01-27T05:19:31;96262.44;;;-1.39;100.00
57644;BME280;43474;46.510;6.686;2023-01-27T05:21:56;96279.00;;;-1.32;100.00
57644;BME280;43474;46.510;6.686;2023-01-27T05:24:22;96285.81;;;-1.31;100.00
57644;BME280;43474;46.510;6.686;2023-01-27T05:26:48;96268.78;;;-1.41;100.00
57644;BME280;43474;46.510;6.686;2023-01-27T05:29:13;96276.25;;;-1.38;100.00
57644;BME280;43474;46.510;6.686;2023-01-27T05:31:39;96280.97;;;-1.34;100.00
57644;BME280;43474;46.510;6.686;2023-01-27T05:34:04;96278.84;;;-1.38;100.00
57644;BME280;43474;46.510;6.686;2023-01-27T05:36:30;96265.06;;;-1.39;100.00
57644;BME280;43474;46.510;6.686;2023-01-27T05:38:58;96278.50;;;-1.35;100.00
57644;BME280;43474;46.510;6.686;2023-01-27T05:41:24;96268.28;;;-1.37;100.00
57644;BME280;43474;46.510;6.686;2023-01-27T05:43:51;96268.59;;;-1.40;100.00
57644;BME280;43474;46.510;6.686;2023-01-27T05:46:20;96268.78;;;-1.33;100.00
57644;BME280;43474;46.510;6.686;2023-01-27T05:48:49;96261.47;;;-1.38;100.00
57644;BME280;43474;46.510;6.686;2023-01-27T05:51:17;96277.56;;;-1.34;100.00
57644;BME280;43474;46.510;6.686;2023-01-27T05:53:43;96270.06;;;-1.37;100.00
57644;BME280;43474;46.510;6.686;2023-01-27T05:56:11;96243.13;;;-1.52;100.00
57644;BME280;43474;46.510;6.686;2023-01-27T05:58:37;96254.03;;;-1.49;100.00
57644;BME280;43474;46.510;6.686;2023-01-27T06:01:08;96267.97;;;-1.34;100.00
57644;BME280;43474;46.510;6.686;2023-01-27T06:03:35;96276.88;;;-1.36;100.00
57644;BME280;43474;46.510;6.686;2023-01-27T06:06:00;96245.91;;;-1.54;100.00
57644;BME280;43474;46.510;6.686;2023-01-27T06:08:26;96260.84;;;-1.48;100.00
57644;BME280;43474;46.510;6.686;2023-01-27T06:10:52;96276.06;;;-1.28;100.00
57644;BME280;43474;46.510;6.686;2023-01-27T06:13:20;96262.28;;;-1.37;100.00
57644;BME280;43474;46.510;6.686;2023-01-27T06:15:46;96272.13;;;-1.24;100.00
57644;BME280;43474;46.510;6.686;2023-01-27T06:18:13;96273.16;;;-1.42;100.00
57644;BME280;43474;46.510;6.686;2023-01-27T06:20:39;96284.19;;;-1.40;100.00
57644;BME280;43474;46.510;6.686;2023-01-27T06:23:06;96283.06;;;-1.45;100.00
57644;BME280;43474;46.510;6.686;2023-01-27T06:25:43;96282.25;;;-1.46;100.00
57644;BME280;43474;46.510;6.686;2023-01-27T06:28:09;96269.25;;;-1.46;100.00
57644;BME280;43474;46.510;6.686;2023-01-27T06:30:36;96267.66;;;-1.55;100.00
57644;BME280;43474;46.510;6.686;2023-01-27T06:33:03;96288.44;;;-1.39;100.00
57644;BME280;43474;46.510;6.686;2023-01-27T06:35:30;96289.56;;;-1.41;100.00
57644;BME280;43474;46.510;6.686;2023-01-27T06:37:57;96289.25;;;-1.38;100.00
57644;BME280;43474;46.510;6.686;2023-01-27T06:40:24;96297.50;;;-1.26;100.00
57644;BME280;43474;46.510;6.686;2023-01-27T06:42:50;96292.97;;;-1.41;100.00
57644;BME280;43474;46.510;6.686;2023-01-27T06:45:16;96297.69;;;-1.28;100.00
57644;BME280;43474;46.510;6.686;2023-01-27T06:47:41;96283.06;;;-1.37;100.00
57644;BME280;43474;46.510;6.686;2023-01-27T06:50:08;96286.66;;;-1.38;100.00
57644;BME280;43474;46.510;6.686;2023-01-27T06:52:34;96282.75;;;-1.42;100.00
57644;BME280;43474;46.510;6.686;2023-01-27T06:55:00;96288.44;;;-1.39;100.00
57644;BME280;43474;46.510;6.686;2023-01-27T06:57:26;96273.66;;;-1.46;100.00
57644;BME280;43474;46.510;6.686;2023-01-27T06:59:51;96285.22;;;-1.49;100.00
57644;BME280;43474;46.510;6.686;2023-01-27T07:02:17;96276.44;;;-1.48;100.00
57644;BME280;43474;46.510;6.686;2023-01-27T07:04:43;96284.53;;;-1.51;100.00
57644;BME280;43474;46.510;6.686;2023-01-27T07:07:08;96294.94;;;-1.43;100.00
57644;BME280;43474;46.510;6.686;2023-01-27T07:09:34;96296.38;;;-1.40;100.00
57644;BME280;43474;46.510;6.686;2023-01-27T07:11:59;96280.16;;;-1.50;100.00
57644;BME280;43474;46.510;6.686;2023-01-27T07:14:25;96285.19;;;-1.41;100.00
57644;BME280;43474;46.510;6.686;2023-01-27T07:16:50;96271.38;;;-1.49;100.00
57644;BME280;43474;46.510;6.686;2023-01-27T07:19:16;96270.88;;;-1.45;100.00
57644;BME280;43474;46.510;6.686;2023-01-27T07:21:42;96270.06;;;-1.45;100.00
57644;BME280;43474;46.510;6.686;2023-01-27T07:24:08;96273.00;;;-1.40;100.00
57644;BME280;43474;46.510;6.686;2023-01-27T07:26:33;96259.22;;;-1.49;100.00
57644;BME280;43474;46.510;6.686;2023-01-27T07:28:59;96264.56;;;-1.50;100.00
57644;BME280;43474;46.510;6.686;2023-01-27T07:31:25;96290.03;;;-1.30;100.00
57644;BME280;43474;46.510;6.686;2023-01-27T07:33:51;96299.47;;;-1.28;100.00
57644;BME280;43474;46.510;6.686;2023-01-27T07:36:17;96260.50;;;-1.45;100.00
57644;BME280;43474;46.510;6.686;2023-01-27T07:38:43;96287.78;;;-1.33;100.00
57644;BME280;43474;46.510;6.686;2023-01-27T07:41:08;96291.66;;;-1.28;100.00
57644;BME280;43474;46.510;6.686;2023-01-27T07:43:34;96289.06;;;-1.28;100.00
57644;BME280;43474;46.510;6.686;2023-01-27T07:45:59;96295.06;;;-1.28;100.00
57644;BME280;43474;46.510;6.686;2023-01-27T07:48:25;96292.13;;;-1.17;100.00
57644;BME280;43474;46.510;6.686;2023-01-27T07:50:51;96291.31;;;-1.17;100.00
57644;BME280;43474;46.510;6.686;2023-01-27T07:53:17;96297.31;;;-1.09;100.00
57644;BME280;43474;46.510;6.686;2023-01-27T07:55:42;96296.81;;;-1.12;100.00
57644;BME280;43474;46.510;6.686;2023-01-27T07:58:08;96289.03;;;-1.12;100.00
57644;BME280;43474;46.510;6.686;2023-01-27T08:00:34;96292.06;;;-1.00;100.00
57644;BME280;43474;46.510;6.686;2023-01-27T08:03:01;96261.25;;;-1.20;100.00
57644;BME280;43474;46.510;6.686;2023-01-27T08:05:28;96270.66;;;-1.11;100.00
57644;BME280;43474;46.510;6.686;2023-01-27T08:07:54;96286.66;;;-0.91;100.00
57644;BME280;43474;46.510;6.686;2023-01-27T08:10:20;96269.16;;;-0.97;100.00
57644;BME280;43474;46.510;6.686;2023-01-27T08:12:46;96284.25;;;-0.92;100.00
57644;BME280;43474;46.510;6.686;2023-01-27T08:15:12;96285.53;;;-0.88;100.00
57644;BME280;43474;46.510;6.686;2023-01-27T08:17:38;96279.22;;;-0.94;100.00
57644;BME280;43474;46.510;6.686;2023-01-27T08:20:04;96283.25;;;-0.83;100.00
57644;BME280;43474;46.510;6.686;2023-01-27T08:22:30;96285.66;;;-0.82;100.00
57644;BME280;43474;46.510;6.686;2023-01-27T08:24:56;96264.88;;;-0.90;100.00
57644;BME280;43474;46.510;6.686;2023-01-27T08:27:22;96289.06;;;-0.73;100.00
57644;BME280;43474;46.510;6.686;2023-01-27T08:29:47;96284.47;;;-0.71;100.00
57644;BME280;43474;46.510;6.686;2023-01-27T08:32:13;96287.56;;;-0.67;100.00
57644;BME280;43474;46.510;6.686;2023-01-27T08:34:39;96290.97;;;-0.67;100.00
57644;BME280;43474;46.510;6.686;2023-01-27T08:37:06;96288.56;;;-0.68;100.00
57644;BME280;43474;46.510;6.686;2023-01-27T08:39:32;96293.56;;;-0.67;100.00
57644;BME280;43474;46.510;6.686;2023-01-27T08:41:58;96285.13;;;-0.69;100.00
57644;BME280;43474;46.510;6.686;2023-01-27T08:44:24;96300.88;;;-0.62;100.00
57644;BME280;43474;46.510;6.686;2023-01-27T08:46:53;96295.50;;;-0.61;100.00
57644;BME280;43474;46.510;6.686;2023-01-27T08:49:19;96311.59;;;-0.57;100.00
57644;BME280;43474;46.510;6.686;2023-01-27T08:51:44;96315.19;;;-0.58;100.00
57644;BME280;43474;46.510;6.686;2023-01-27T08:54:10;96293.28;;;-0.72;100.00
57644;BME280;43474;46.510;6.686;2023-01-27T08:56:36;96307.06;;;-0.63;100.00
57644;BME280;43474;46.510;6.686;2023-01-27T08:59:01;96318.28;;;-0.63;100.00
57644;BME280;43474;46.510;6.686;2023-01-27T09:01:27;96314.38;;;-0.59;100.00
57644;BME280;43474;46.510;6.686;2023-01-27T09:03:52;96301.88;;;-0.71;100.00
57644;BME280;43474;46.510;6.686;2023-01-27T09:06:18;96301.38;;;-0.67;100.00
57644;BME280;43474;46.510;6.686;2023-01-27T09:08:46;96297.78;;;-0.66;100.00
57644;BME280;43474;46.510;6.686;2023-01-27T09:11:31;96306.25;;;-0.64;100.00
57644;BME280;43474;46.510;6.686;2023-01-27T09:13:57;96319.22;;;-0.56;100.00
57644;BME280;43474;46.510;6.686;2023-01-27T09:16:22;96310.31;;;-0.61;100.00
57644;BME280;43474;46.510;6.686;2023-01-27T09:18:48;96312.88;;;-0.53;100.00
57644;BME280;43474;46.510;6.686;2023-01-27T09:21:13;96318.09;;;-0.53;100.00
57644;BME280;43474;46.510;6.686;2023-01-27T09:23:39;96311.19;;;-0.46;100.00
57644;BME280;43474;46.510;6.686;2023-01-27T09:26:05;96316.72;;;-0.41;100.00
57644;BME280;43474;46.510;6.686;2023-01-27T09:28:30;96313.59;;;-0.36;100.00
57644;BME280;43474;46.510;6.686;2023-01-27T09:30:57;96292.84;;;-0.44;100.00
57644;BME280;43474;46.510;6.686;2023-01-27T09:33:23;96311.28;;;-0.31;100.00
57644;BME280;43474;46.510;6.686;2023-01-27T09:35:58;96311.72;;;-0.19;100.00
57644;BME280;43474;46.510;6.686;2023-01-27T09:38:27;96326.22;;;-0.25;100.00
57644;BME280;43474;46.510;6.686;2023-01-27T09:52:26;96307.84;;;-0.01;100.00
57644;BME280;43474;46.510;6.686;2023-01-27T10:03:28;96337.34;;;0.23;100.00
57644;BME280;43474;46.510;6.686;2023-01-27T10:11:25;96317.94;;;0.25;100.00
57644;BME280;43474;46.510;6.686;2023-01-27T10:19:20;96333.13;;;0.22;100.00
57644;BME280;43474;46.510;6.686;2023-01-27T10:27:37;96318.63;;;0.42;100.00
57644;BME280;43474;46.510;6.686;2023-01-27T10:30:14;96323.88;;;0.57;100.00
57644;BME280;43474;46.510;6.686;2023-01-27T10:32:44;96317.78;;;0.80;100.00
57644;BME280;43474;46.510;6.686;2023-01-27T10:35:30;96319.59;;;0.79;100.00
57644;BME280;43474;46.510;6.686;2023-01-27T10:43:54;96293.13;;;0.30;100.00
57644;BME280;43474;46.510;6.686;2023-01-27T10:46:51;96310.97;;;0.41;100.00
57644;BME280;43474;46.510;6.686;2023-01-27T10:49:22;96315.03;;;0.43;100.00
57644;BME280;43474;46.510;6.686;2023-01-27T10:51:55;96307.34;;;0.50;100.00
57644;BME280;43474;46.510;6.686;2023-01-27T10:54:28;96290.56;;;0.44;100.00
57644;BME280;43474;46.510;6.686;2023-01-27T10:57:05;96287.91;;;0.52;100.00
57644;BME280;43474;46.510;6.686;2023-01-27T11:02:36;96279.75;;;0.56;100.00
57644;BME280;43474;46.510;6.686;2023-01-27T11:05:16;96286.59;;;0.71;100.00
57644;BME280;43474;46.510;6.686;2023-01-27T11:07:58;96274.00;;;0.75;100.00
57644;BME280;43474;46.510;6.686;2023-01-27T11:10:32;96290.09;;;0.93;100.00
57644;BME280;43474;46.510;6.686;2023-01-27T11:13:01;96276.53;;;0.98;100.00
57644;BME280;43474;46.510;6.686;2023-01-27T11:15:31;96277.06;;;0.93;100.00
57644;BME280;43474;46.510;6.686;2023-01-27T11:18:09;96280.13;;;0.97;100.00
57644;BME280;43474;46.510;6.686;2023-01-27T11:20:42;96286.06;;;0.91;100.00
57644;BME280;43474;46.510;6.686;2023-01-27T11:23:26;96265.09;;;0.99;100.00
57644;BME280;43474;46.510;6.686;2023-01-27T11:28:51;96254.84;;;0.97;100.00
57644;BME280;43474;46.510;6.686;2023-01-27T11:34:17;96265.53;;;0.73;100.00
57644;BME280;43474;46.510;6.686;2023-01-27T11:36:46;96260.13;;;0.74;100.00
57644;BME280;43474;46.510;6.686;2023-01-27T11:39:14;96258.53;;;0.73;100.00
57644;BME280;43474;46.510;6.686;2023-01-27T11:41:44;96246.94;;;0.61;100.00
57644;BME280;43474;46.510;6.686;2023-01-27T11:44:20;96230.28;;;0.47;100.00
57644;BME280;43474;46.510;6.686;2023-01-27T11:46:47;96242.94;;;0.36;100.00
57644;BME280;43474;46.510;6.686;2023-01-27T11:49:27;96252.38;;;0.37;100.00
57644;BME280;43474;46.510;6.686;2023-01-27T11:52:00;96239.59;;;0.27;100.00
57644;BME280;43474;46.510;6.686;2023-01-27T11:54:35;96208.81;;;0.08;100.00
57644;BME280;43474;46.510;6.686;2023-01-27T11:57:04;96244.97;;;0.25;100.00
57644;BME280;43474;46.510;6.686;2023-01-27T11:59:36;96248.31;;;0.34;100.00
57644;BME280;43474;46.510;6.686;2023-01-27T12:05:06;96248.69;;;0.31;100.00
57644;BME280;43474;46.510;6.686;2023-01-27T12:07:54;96253.97;;;0.38;100.00
57644;BME280;43474;46.510;6.686;2023-01-27T12:12:48;96236.81;;;0.43;100.00
57644;BME280;43474;46.510;6.686;2023-01-27T12:15:15;96235.84;;;0.59;100.00
57644;BME280;43474;46.510;6.686;2023-01-27T12:18:04;96231.81;;;0.71;100.00
57644;BME280;43474;46.510;6.686;2023-01-27T12:20:38;96232.63;;;0.72;100.00
57644;BME280;43474;46.510;6.686;2023-01-27T12:23:23;96223.91;;;0.65;100.00
57644;BME280;43474;46.510;6.686;2023-01-27T12:25:56;96227.47;;;0.49;100.00
57644;BME280;43474;46.510;6.686;2023-01-27T12:28:37;96220.66;;;1.07;100.00
57644;BME280;43474;46.510;6.686;2023-01-27T12:31:07;96233.72;;;1.79;100.00
57644;BME280;43474;46.510;6.686;2023-01-27T12:33:36;96201.31;;;2.23;100.00
57644;BME280;43474;46.510;6.686;2023-01-27T12:36:11;96197.41;;;2.34;100.00
57644;BME280;43474;46.510;6.686;2023-01-27T12:38:37;96209.16;;;2.45;100.00
57644;BME280;43474;46.510;6.686;2023-01-27T12:41:09;96201.84;;;2.68;97.96
57644;BME280;43474;46.510;6.686;2023-01-27T12:43:54;96211.84;;;2.58;99.27
57644;BME280;43474;46.510;6.686;2023-01-27T12:46:24;96216.34;;;2.71;98.37
57644;BME280;43474;46.510;6.686;2023-01-27T12:48:51;96199.06;;;2.70;98.84
57644;BME280;43474;46.510;6.686;2023-01-27T12:51:22;96209.56;;;2.83;97.54
57644;BME280;43474;46.510;6.686;2023-01-27T12:53:49;96211.63;;;3.35;94.58
57644;BME280;43474;46.510;6.686;2023-01-27T12:58:56;96207.50;;;3.68;92.42
57644;BME280;43474;46.510;6.686;2023-01-27T13:01:28;96206.13;;;3.85;89.91
57644;BME280;43474;46.510;6.686;2023-01-27T13:04:24;96196.63;;;3.71;91.03
57644;BME280;43474;46.510;6.686;2023-01-27T13:09:38;96184.06;;;3.53;93.98
57644;BME280;43474;46.510;6.686;2023-01-27T13:12:23;96201.38;;;3.41;94.77
57644;BME280;43474;46.510;6.686;2023-01-27T13:14:52;96195.34;;;2.92;94.15
57644;BME280;43474;46.510;6.686;2023-01-27T13:20:03;96192.88;;;2.21;98.01
57644;BME280;43474;46.510;6.686;2023-01-27T13:22:39;96189.56;;;2.34;99.21
57644;BME280;43474;46.510;6.686;2023-01-27T13:25:14;96223.97;;;3.00;98.99
57644;BME280;43474;46.510;6.686;2023-01-27T13:27:43;96194.81;;;3.03;97.92
57644;BME280;43474;46.510;6.686;2023-01-27T13:30:33;96222.63;;;3.11;92.55
57644;BME280;43474;46.510;6.686;2023-01-27T13:39:26;96203.81;;;2.94;94.17
57644;BME280;43474;46.510;6.686;2023-01-27T13:44:41;96232.97;;;3.32;94.63
57644;BME280;43474;46.510;6.686;2023-01-27T13:47:19;96223.41;;;3.05;96.28
57644;BME280;43474;46.510;6.686;2023-01-27T13:52:43;96214.34;;;3.07;97.13
57644;BME280;43474;46.510;6.686;2023-01-27T13:55:12;96218.75;;;2.66;95.38
57644;BME280;43474;46.510;6.686;2023-01-27T13:57:46;96236.16;;;2.87;100.00
57644;BME280;43474;46.510;6.686;2023-01-27T14:00:17;96222.63;;;2.76;97.79
57644;BME280;43474;46.510;6.686;2023-01-27T14:05:37;96230.31;;;2.50;99.67
57644;BME280;43474;46.510;6.686;2023-01-27T14:16:25;96255.66;;;2.28;100.00
57644;BME280;43474;46.510;6.686;2023-01-27T14:19:04;96250.41;;;2.00;100.00
57644;BME280;43474;46.510;6.686;2023-01-27T14:21:38;96259.47;;;1.83;100.00
57644;BME280;43474;46.510;6.686;2023-01-27T14:34:50;96271.41;;;1.70;100.00
57644;BME280;43474;46.510;6.686;2023-01-27T14:45:20;96274.56;;;1.00;100.00
57644;BME280;43474;46.510;6.686;2023-01-27T14:48:13;96273.56;;;1.01;100.00
57644;BME280;43474;46.510;6.686;2023-01-27T14:51:04;96268.44;;;1.08;100.00